createdAt,value
2022-09-07T00:00:46.508Z,18.90
2022-09-07T00:03:19.298Z,18.90
2022-09-07T00:05:50.000Z,18.80
2022-09-07T00:08:20.908Z,18.80
2022-09-07T00:10:55.898Z,18.80
2022-09-07T00:13:26.100Z,18.80
2022-09-07T00:15:55.997Z,18.80
2022-09-07T00:18:26.185Z,18.70
2022-09-07T00:21:02.152Z,18.70
2022-09-07T00:23:32.661Z,18.70
2022-09-07T00:26:05.282Z,18.70
2022-09-07T00:28:35.884Z,18.60
2022-09-07T00:31:05.626Z,18.60
2022-09-07T00:33:35.266Z,18.60
2022-09-07T00:36:05.463Z,18.50
2022-09-07T00:38:35.010Z,18.40
2022-09-07T00:41:06.552Z,18.50
2022-09-07T00:43:37.544Z,18.40
2022-09-07T00:46:08.083Z,18.40
2022-09-07T00:48:41.656Z,18.40
2022-09-07T00:51:12.630Z,18.30
2022-09-07T00:53:43.979Z,18.30
2022-09-07T00:56:16.084Z,18.30
2022-09-07T00:58:46.088Z,18.30
2022-09-07T01:01:17.950Z,18.30
2022-09-07T01:03:48.834Z,18.30
2022-09-07T01:06:19.140Z,18.20
2022-09-07T01:08:50.384Z,18.20
2022-09-07T01:11:23.269Z,18.20
2022-09-07T01:13:53.152Z,18.10
2022-09-07T01:16:29.795Z,18.10
2022-09-07T01:19:04.993Z,18.00
2022-09-07T01:21:38.491Z,18.00
2022-09-07T01:24:26.371Z,18.00
2022-09-07T01:27:14.303Z,17.90
2022-09-07T01:29:51.754Z,17.90
2022-09-07T01:32:27.038Z,17.80
2022-09-07T01:34:56.694Z,17.80
2022-09-07T01:37:30.297Z,17.90
2022-09-07T01:40:03.389Z,17.90
2022-09-07T01:42:34.975Z,17.80
2022-09-07T01:45:12.144Z,17.80
2022-09-07T01:47:43.627Z,17.80
2022-09-07T01:50:16.417Z,17.90
2022-09-07T01:52:49.907Z,17.80
2022-09-07T01:55:21.447Z,17.90
2022-09-07T01:57:54.911Z,17.80
2022-09-07T02:00:26.993Z,17.90
2022-09-07T02:03:00.241Z,17.90
2022-09-07T02:05:32.582Z,17.90
2022-09-07T02:08:05.276Z,17.80
2022-09-07T02:10:37.302Z,17.90
2022-09-07T02:13:09.175Z,17.80
2022-09-07T02:15:45.327Z,17.80
2022-09-07T02:18:16.131Z,17.80
2022-09-07T02:20:47.107Z,17.80
2022-09-07T02:23:17.714Z,17.80
2022-09-07T02:25:48.973Z,17.80
2022-09-07T02:28:20.125Z,17.80
2022-09-07T02:30:51.338Z,17.80
2022-09-07T02:33:20.990Z,17.80
2022-09-07T02:35:50.724Z,17.80
2022-09-07T02:38:20.628Z,17.80
2022-09-07T02:40:52.803Z,17.80
2022-09-07T02:43:23.165Z,17.80
2022-09-07T02:46:00.356Z,17.80
2022-09-07T02:48:33.720Z,17.80
2022-09-07T02:51:08.963Z,17.70
2022-09-07T02:53:52.815Z,17.70
2022-09-07T02:56:29.343Z,17.70
2022-09-07T02:59:04.576Z,17.70
2022-09-07T03:01:38.915Z,17.70
2022-09-07T03:04:12.384Z,17.70
2022-09-07T03:06:43.101Z,17.60
2022-09-07T03:09:15.021Z,17.60
2022-09-07T03:11:44.673Z,17.50
2022-09-07T03:14:15.315Z,17.50
2022-09-07T03:16:46.704Z,17.40
2022-09-07T03:19:16.205Z,17.40
2022-09-07T03:21:45.713Z,17.40
2022-09-07T03:24:15.394Z,17.40
2022-09-07T03:26:46.139Z,17.30
2022-09-07T03:29:15.600Z,17.30
2022-09-07T03:31:46.732Z,17.30
2022-09-07T03:34:16.313Z,17.30
2022-09-07T03:36:45.787Z,17.30
2022-09-07T03:39:15.333Z,17.30
2022-09-07T03:41:44.840Z,17.30
2022-09-07T03:44:14.248Z,17.20
2022-09-07T03:46:45.081Z,17.20
2022-09-07T03:49:17.191Z,17.20
2022-09-07T03:51:46.990Z,17.20
2022-09-07T03:54:16.436Z,17.20
2022-09-07T03:56:46.069Z,17.30
2022-09-07T03:59:15.588Z,17.30
2022-09-07T04:01:45.375Z,17.30
2022-09-07T04:04:16.698Z,17.30
2022-09-07T04:06:46.311Z,17.30
2022-09-07T04:09:16.573Z,17.40
2022-09-07T04:11:46.116Z,17.40
2022-09-07T04:14:15.607Z,17.40
2022-09-07T04:16:46.123Z,17.40
2022-09-07T04:19:17.235Z,17.40
2022-09-07T04:21:47.989Z,17.40
2022-09-07T04:24:17.768Z,17.40
2022-09-07T04:26:47.398Z,17.40
2022-09-07T04:29:16.988Z,17.40
2022-09-07T04:31:46.950Z,17.40
2022-09-07T04:34:18.196Z,17.40
2022-09-07T04:36:47.660Z,17.40
2022-09-07T04:39:17.089Z,17.40
2022-09-07T04:41:48.220Z,17.40
2022-09-07T04:44:23.325Z,17.30
2022-09-07T04:46:53.189Z,17.30
2022-09-07T04:49:24.374Z,17.20
2022-09-07T04:51:53.853Z,17.20
2022-09-07T04:54:23.321Z,17.10
2022-09-07T04:56:52.838Z,17.10
2022-09-07T04:59:22.401Z,17.00
2022-09-07T05:01:52.120Z,16.90
2022-09-07T05:04:23.810Z,16.90
2022-09-07T05:06:54.953Z,16.80
2022-09-07T05:09:24.555Z,16.70
2022-09-07T05:11:54.222Z,16.70
2022-09-07T05:14:23.825Z,16.60
2022-09-07T05:16:53.755Z,16.60
2022-09-07T05:19:25.135Z,16.50
2022-09-07T05:21:54.627Z,16.30
2022-09-07T05:24:24.194Z,16.20
2022-09-07T05:26:53.649Z,16.10
2022-09-07T05:32:13.117Z,15.80
2022-09-07T05:34:44.368Z,15.70
2022-09-07T05:37:13.793Z,15.50
2022-09-07T05:39:43.266Z,15.40
2022-09-07T05:42:12.931Z,15.30
2022-09-07T05:47:12.461Z,15.20
2022-09-07T05:49:43.565Z,15.10
2022-09-07T05:52:13.326Z,15.00
2022-09-07T05:54:43.179Z,15.00
2022-09-07T05:57:14.370Z,14.90
2022-09-07T05:59:43.859Z,14.90
2022-09-07T06:02:16.352Z,14.80
2022-09-07T06:04:48.251Z,14.80
2022-09-07T06:07:22.121Z,14.70
2022-09-07T06:12:44.401Z,14.70
2022-09-07T06:15:17.804Z,14.70
2022-09-07T06:17:47.363Z,14.60
2022-09-07T06:20:18.939Z,14.60
2022-09-07T06:22:48.597Z,14.60
2022-09-07T06:25:18.079Z,14.60
2022-09-07T06:27:50.544Z,14.70
2022-09-07T06:30:20.153Z,14.70
2022-09-07T06:32:49.806Z,14.80
2022-09-07T06:35:20.985Z,14.90
2022-09-07T06:37:50.426Z,15.00
2022-09-07T06:40:20.042Z,15.10
2022-09-07T06:42:50.123Z,15.10
2022-09-07T06:45:19.583Z,15.20
2022-09-07T06:47:49.092Z,15.30
2022-09-07T06:50:18.593Z,15.30
2022-09-07T06:55:45.079Z,15.40
2022-09-07T06:58:14.562Z,15.40
2022-09-07T07:00:44.221Z,15.50
2022-09-07T07:03:15.182Z,15.50
2022-09-07T07:05:45.035Z,15.50
2022-09-07T07:08:16.139Z,15.50
2022-09-07T07:10:45.834Z,15.50
2022-09-07T07:15:46.058Z,15.60
2022-09-07T07:18:30.967Z,15.60
2022-09-07T07:21:00.482Z,15.70
2022-09-07T07:23:31.890Z,15.70
2022-09-07T07:26:04.027Z,15.80
2022-09-07T07:31:24.431Z,15.80
2022-09-07T07:33:54.578Z,15.80
2022-09-07T07:36:24.574Z,15.80
2022-09-07T07:44:16.154Z,15.70
2022-09-07T07:46:45.814Z,15.60
2022-09-07T07:49:15.267Z,15.60
2022-09-07T07:54:37.535Z,15.40
2022-09-07T07:57:07.687Z,15.20
2022-09-07T07:59:37.304Z,15.10
2022-09-07T08:02:07.174Z,15.10
2022-09-07T08:04:37.568Z,15.00
2022-09-07T08:07:10.788Z,14.90
2022-09-07T08:09:43.795Z,14.80
2022-09-07T08:12:14.755Z,14.70
2022-09-07T08:14:44.339Z,14.70
2022-09-07T08:17:14.347Z,14.70
2022-09-07T08:19:43.949Z,14.70
2022-09-07T08:22:13.801Z,14.70
2022-09-07T08:24:44.839Z,14.80
2022-09-07T08:27:14.235Z,14.90
2022-09-07T08:29:43.681Z,14.90
2022-09-07T08:32:13.305Z,14.90
2022-09-07T08:34:42.940Z,14.90
2022-09-07T08:37:13.210Z,14.90
2022-09-07T08:39:43.172Z,15.00
2022-09-07T08:42:27.472Z,15.10
2022-09-07T08:45:01.379Z,15.20
2022-09-07T08:47:34.395Z,15.30
2022-09-07T08:50:06.068Z,15.40
2022-09-07T08:52:42.058Z,15.50
2022-09-07T08:55:15.200Z,15.50
2022-09-07T08:57:47.391Z,15.50
2022-09-07T09:00:19.641Z,15.60
2022-09-07T09:05:41.845Z,15.50
2022-09-07T09:08:19.056Z,15.40
2022-09-07T09:10:52.795Z,15.30
2022-09-07T09:13:25.554Z,15.20
2022-09-07T09:16:00.607Z,15.20
2022-09-07T09:18:36.372Z,15.10
2022-09-07T09:21:08.514Z,15.00
2022-09-07T09:23:41.804Z,15.00
2022-09-07T09:26:14.452Z,14.90
2022-09-07T09:28:44.038Z,14.90
2022-09-07T09:31:19.423Z,14.80
2022-09-07T09:34:09.323Z,14.70
2022-09-07T09:36:43.241Z,14.70
2022-09-07T09:39:29.065Z,14.70
2022-09-07T09:42:00.356Z,14.60
2022-09-07T09:44:33.499Z,14.60
2022-09-07T09:49:55.095Z,14.60
2022-09-07T09:52:30.525Z,14.60
2022-09-07T09:55:23.615Z,14.60
2022-09-07T10:06:24.474Z,14.80
2022-09-07T10:08:57.213Z,14.90
2022-09-07T10:14:31.919Z,15.10
2022-09-07T10:17:02.492Z,15.20
2022-09-07T10:19:35.969Z,15.20
2022-09-07T10:22:06.120Z,15.20
2022-09-07T10:24:39.192Z,15.20
2022-09-07T10:27:21.532Z,15.20
2022-09-07T10:29:51.133Z,15.20
2022-09-07T10:32:25.813Z,15.10
2022-09-07T10:35:03.217Z,15.00
2022-09-07T10:37:37.621Z,15.00
2022-09-07T10:40:09.527Z,14.90
2022-09-07T10:43:20.715Z,14.90
2022-09-07T10:45:37.323Z,14.80
2022-09-07T10:48:10.372Z,14.80
2022-09-07T10:50:46.931Z,14.80
2022-09-07T10:53:44.820Z,14.90
2022-09-07T10:56:17.103Z,14.90
2022-09-07T10:59:09.147Z,15.00
2022-09-07T11:01:45.892Z,15.10
2022-09-07T11:04:27.325Z,15.20
2022-09-07T11:07:03.625Z,15.40
2022-09-07T11:09:57.253Z,15.50
2022-09-07T11:12:28.307Z,15.60
2022-09-07T11:15:00.915Z,15.70
2022-09-07T11:17:32.239Z,15.80
2022-09-07T11:20:06.635Z,15.90
2022-09-07T11:22:39.655Z,16.00
2022-09-07T11:25:31.844Z,16.10
2022-09-07T11:28:03.388Z,16.20
2022-09-07T11:30:34.092Z,16.20
2022-09-07T11:33:05.684Z,16.30
2022-09-07T11:35:42.139Z,16.30
2022-09-07T11:38:20.675Z,16.40
2022-09-07T11:40:57.586Z,16.50
2022-09-07T11:43:29.521Z,16.50
2022-09-07T11:46:01.182Z,16.60
2022-09-07T11:48:33.890Z,16.60
2022-09-07T11:51:05.760Z,16.70
2022-09-07T11:53:39.848Z,16.80
2022-09-07T11:56:12.993Z,16.80
2022-09-07T11:58:57.174Z,16.90
2022-09-07T12:01:32.173Z,17.00
2022-09-07T12:04:19.123Z,17.00
2022-09-07T12:06:53.869Z,17.10
2022-09-07T12:09:34.712Z,17.20
2022-09-07T12:12:14.349Z,17.20
2022-09-07T12:14:48.510Z,17.30
2022-09-07T12:17:36.546Z,17.40
2022-09-07T12:20:12.694Z,17.50
2022-09-07T12:22:58.894Z,17.60
2022-09-07T12:25:34.005Z,17.60
2022-09-07T12:28:03.694Z,17.70
2022-09-07T12:30:51.351Z,17.70
2022-09-07T12:33:25.035Z,17.80
2022-09-07T12:35:55.815Z,17.90
2022-09-07T12:38:43.988Z,18.00
2022-09-07T12:41:24.989Z,18.00
2022-09-07T12:43:56.072Z,18.10
2022-09-07T12:46:48.820Z,18.20
2022-09-07T12:49:22.493Z,18.30
2022-09-07T12:52:11.416Z,18.40
2022-09-07T12:55:04.452Z,18.50
2022-09-07T12:57:44.503Z,18.70
2022-09-07T13:00:18.635Z,18.80
2022-09-07T13:03:49.418Z,18.90
2022-09-07T13:06:04.401Z,19.10
2022-09-07T13:09:03.648Z,19.20
2022-09-07T13:11:34.938Z,19.30
2022-09-07T13:14:09.493Z,19.40
2022-09-07T13:19:47.828Z,19.70
2022-09-07T13:22:31.906Z,19.80
2022-09-07T13:25:02.207Z,19.80
2022-09-07T13:27:39.704Z,19.90
2022-09-07T13:30:24.008Z,19.90
2022-09-07T13:33:09.114Z,20.10
2022-09-07T13:35:38.798Z,20.20
2022-09-07T13:38:08.269Z,20.40
2022-09-07T13:40:41.398Z,20.50
2022-09-07T13:43:16.077Z,20.60
2022-09-07T13:45:58.672Z,20.70
2022-09-07T13:48:33.048Z,20.90
2022-09-07T13:51:04.333Z,21.00
2022-09-07T13:53:38.463Z,21.10
2022-09-07T13:56:14.202Z,21.20
2022-09-07T13:58:44.679Z,21.30
2022-09-07T14:01:21.564Z,21.40
2022-09-07T14:03:53.857Z,21.60
2022-09-07T14:06:30.765Z,21.70
2022-09-07T14:09:04.048Z,21.80
2022-09-07T14:11:41.272Z,21.90
2022-09-07T14:14:18.697Z,22.00
2022-09-07T14:16:56.517Z,22.00
2022-09-07T14:19:27.703Z,22.00
2022-09-07T14:21:57.955Z,22.00
2022-09-07T14:24:31.943Z,22.00
2022-09-07T14:27:01.804Z,22.10
2022-09-07T14:29:34.637Z,22.00
2022-09-07T14:32:06.343Z,22.10
2022-09-07T14:34:37.305Z,22.20
2022-09-07T14:37:08.174Z,22.30
2022-09-07T14:39:40.656Z,22.30
2022-09-07T14:42:12.797Z,22.30
2022-09-07T14:44:43.682Z,22.20
2022-09-07T14:47:24.327Z,22.10
2022-09-07T14:49:55.806Z,22.20
2022-09-07T14:52:29.771Z,22.20
2022-09-07T14:54:59.481Z,22.20
2022-09-07T14:57:31.020Z,22.20
2022-09-07T15:00:01.264Z,22.20
2022-09-07T15:02:39.300Z,22.30
2022-09-07T15:05:32.704Z,22.40
2022-09-07T15:08:03.339Z,22.50
2022-09-07T15:10:38.331Z,22.70
2022-09-07T15:13:08.471Z,22.70
2022-09-07T15:15:40.214Z,22.80
2022-09-07T15:18:43.399Z,23.00
2022-09-07T15:21:13.330Z,23.10
2022-09-07T15:23:42.777Z,23.10
2022-09-07T15:27:02.113Z,23.00
2022-09-07T15:29:11.255Z,23.00
2022-09-07T15:31:59.234Z,23.20
2022-09-07T15:34:34.376Z,23.30
2022-09-07T15:38:00.543Z,23.30
2022-09-07T15:39:53.804Z,23.40
2022-09-07T15:45:13.270Z,23.40
2022-09-07T15:47:47.987Z,23.50
2022-09-07T15:50:24.106Z,23.50
2022-09-07T15:52:53.579Z,23.50
2022-09-07T15:55:23.000Z,23.60
2022-09-07T15:58:05.085Z,23.80
2022-09-07T16:00:40.931Z,23.90
2022-09-07T16:03:10.625Z,23.90
2022-09-07T16:05:44.847Z,23.90
2022-09-07T16:11:18.019Z,24.40
2022-09-07T16:13:48.282Z,24.90
2022-09-07T16:16:18.097Z,24.80
2022-09-07T16:18:47.937Z,24.60
2022-09-07T16:21:19.842Z,24.20
2022-09-07T16:23:50.705Z,24.00
2022-09-07T16:26:20.790Z,24.20
2022-09-07T16:28:52.642Z,24.10
2022-09-07T16:31:34.113Z,24.10
2022-09-07T16:34:07.159Z,24.20
2022-09-07T16:36:38.102Z,25.10
2022-09-07T16:39:07.850Z,25.80
2022-09-07T16:41:37.626Z,26.30
2022-09-07T16:44:07.121Z,27.20
2022-09-07T16:46:37.037Z,27.80
2022-09-07T16:49:08.123Z,28.30
2022-09-07T16:51:39.909Z,28.70
2022-09-07T16:54:09.937Z,28.60
2022-09-07T16:56:39.430Z,28.80
2022-09-07T16:59:10.234Z,28.60
2022-09-07T17:01:40.267Z,28.50
2022-09-07T17:04:11.308Z,29.10
2022-09-07T17:06:42.714Z,29.00
2022-09-07T17:09:13.391Z,28.90
2022-09-07T17:11:43.044Z,28.60
2022-09-07T17:14:13.889Z,28.40
2022-09-07T17:16:44.437Z,27.90
2022-09-07T17:19:32.448Z,27.20
2022-09-07T17:22:03.796Z,26.90
2022-09-07T17:24:33.498Z,27.70
2022-09-07T17:27:03.999Z,28.50
2022-09-07T17:29:38.354Z,29.00
2022-09-07T17:32:24.650Z,28.80
2022-09-07T17:34:55.990Z,28.30
2022-09-07T17:37:27.301Z,27.50
2022-09-07T17:39:56.936Z,26.80
2022-09-07T17:43:38.770Z,26.50
2022-09-07T17:45:18.510Z,26.10
2022-09-07T17:47:50.129Z,26.60
2022-09-07T17:50:19.570Z,27.00
2022-09-07T17:52:52.959Z,27.10
2022-09-07T17:55:23.799Z,26.70
2022-09-07T17:57:53.813Z,26.20
2022-09-07T18:00:23.251Z,25.70
2022-09-07T18:02:52.930Z,25.90
2022-09-07T18:05:22.378Z,26.50
2022-09-07T18:07:53.531Z,27.20
2022-09-07T18:10:23.756Z,27.90
2022-09-07T18:12:53.608Z,28.30
2022-09-07T18:15:23.239Z,27.90
2022-09-07T18:17:52.693Z,27.50
2022-09-07T18:20:23.446Z,27.90
2022-09-07T18:22:54.680Z,28.40
2022-09-07T18:25:24.151Z,28.70
2022-09-07T18:30:43.621Z,29.70
2022-09-07T18:33:13.044Z,30.20
2022-09-07T18:35:46.513Z,30.30
2022-09-07T18:38:18.122Z,30.30
2022-09-07T18:40:47.647Z,30.60
2022-09-07T18:43:17.180Z,30.70
2022-09-07T18:45:46.784Z,30.50
2022-09-07T18:48:16.335Z,30.80
2022-09-07T18:50:45.757Z,30.40
2022-09-07T18:53:16.828Z,30.50
2022-09-07T18:55:48.067Z,30.60
2022-09-07T18:58:17.965Z,30.30
2022-09-07T19:00:48.281Z,30.40
2022-09-07T19:03:18.110Z,30.10
2022-09-07T19:05:50.564Z,30.10
2022-09-07T19:08:20.881Z,30.10
2022-09-07T19:10:51.961Z,30.30
2022-09-07T19:13:21.580Z,30.10
2022-09-07T19:15:51.161Z,29.90
2022-09-07T19:18:20.818Z,30.20
2022-09-07T19:20:50.404Z,30.20
2022-09-07T19:23:25.814Z,30.30
2022-09-07T19:25:57.573Z,30.30
2022-09-07T19:28:27.276Z,30.20
2022-09-07T19:30:56.862Z,30.30
2022-09-07T19:33:26.372Z,30.40
2022-09-07T19:35:56.187Z,30.10
2022-09-07T19:38:26.050Z,29.20
2022-09-07T19:41:00.965Z,29.30
2022-09-07T19:43:33.548Z,29.40
2022-09-07T19:46:03.538Z,29.70
2022-09-07T19:48:33.234Z,29.70
2022-09-07T19:51:06.914Z,29.60
2022-09-07T19:53:36.773Z,29.60
2022-09-07T19:56:08.953Z,29.80
2022-09-07T19:58:39.272Z,29.80
2022-09-07T20:01:10.227Z,29.60
2022-09-07T20:03:40.567Z,29.50
2022-09-07T20:06:10.791Z,29.50
2022-09-07T20:08:40.483Z,29.40
2022-09-07T20:11:12.560Z,29.40
2022-09-07T20:13:42.605Z,29.70
2022-09-07T20:16:13.717Z,29.40
2022-09-07T20:18:43.218Z,29.70
2022-09-07T20:21:14.026Z,29.60
2022-09-07T20:23:43.820Z,29.70
2022-09-07T20:26:15.437Z,29.50
2022-09-07T20:28:45.564Z,29.60
2022-09-07T20:31:15.783Z,29.60
2022-09-07T20:33:46.294Z,29.70
2022-09-07T20:36:17.258Z,29.60
2022-09-07T20:38:47.907Z,29.50
2022-09-07T20:41:20.362Z,29.40
2022-09-07T20:43:50.485Z,29.40
2022-09-07T20:46:20.478Z,29.30
2022-09-07T20:48:49.968Z,29.40
2022-09-07T20:51:21.410Z,29.40
2022-09-07T20:53:51.407Z,29.30
2022-09-07T20:56:23.209Z,29.30
2022-09-07T20:58:56.528Z,29.30
2022-09-07T21:01:26.715Z,29.30
2022-09-07T21:03:57.244Z,29.40
2022-09-07T21:06:27.342Z,29.50
2022-09-07T21:08:56.995Z,29.40
2022-09-07T21:11:28.681Z,29.20
2022-09-07T21:13:58.955Z,29.20
2022-09-07T21:16:29.025Z,29.10
2022-09-07T21:18:59.352Z,28.90
2022-09-07T21:21:29.502Z,28.80
2022-09-07T21:23:59.926Z,28.60
2022-09-07T21:26:31.004Z,28.40
2022-09-07T21:29:01.134Z,28.40
2022-09-07T21:31:31.796Z,28.30
2022-09-07T21:34:02.078Z,28.20
2022-09-07T21:36:32.048Z,28.20
2022-09-07T21:39:01.476Z,28.10
2022-09-07T21:41:32.766Z,27.90
2022-09-07T21:44:02.947Z,27.70
2022-09-07T21:46:34.000Z,27.50
2022-09-07T21:49:04.164Z,27.20
2022-09-07T21:51:33.915Z,26.90
2022-09-07T21:54:03.389Z,26.70
2022-09-07T21:56:34.461Z,26.50
2022-09-07T21:59:05.339Z,26.40
2022-09-07T22:01:35.244Z,26.30
2022-09-07T22:04:07.495Z,26.10
2022-09-07T22:06:37.165Z,26.00
2022-09-07T22:09:07.226Z,25.80
2022-09-07T22:11:38.261Z,25.70
2022-09-07T22:14:08.263Z,25.60
2022-09-07T22:16:37.799Z,25.50
2022-09-07T22:19:07.926Z,25.20
2022-09-07T22:21:37.682Z,24.90
2022-09-07T22:24:08.268Z,24.50
2022-09-07T22:26:39.716Z,24.10
2022-09-07T22:29:09.639Z,23.70
2022-09-07T22:31:39.793Z,23.40
2022-09-07T22:34:10.741Z,23.00
2022-09-07T22:36:41.735Z,22.80
2022-09-07T22:39:12.552Z,22.50
2022-09-07T22:41:44.255Z,22.20
2022-09-07T22:44:14.955Z,22.00
2022-09-07T22:46:45.009Z,21.70
2022-09-07T22:49:15.245Z,21.50
2022-09-07T22:51:44.706Z,21.40
2022-09-07T22:54:14.646Z,21.20
2022-09-07T22:56:45.979Z,21.10
2022-09-07T22:59:16.029Z,20.90
2022-09-07T23:01:47.668Z,20.80
2022-09-07T23:04:17.690Z,20.60
2022-09-07T23:06:47.241Z,20.50
2022-09-07T23:09:17.434Z,20.30
2022-09-07T23:11:48.834Z,20.20
2022-09-07T23:14:19.737Z,20.00
2022-09-07T23:16:49.195Z,19.90
2022-09-07T23:19:19.139Z,19.60
2022-09-07T23:21:49.849Z,19.50
2022-09-07T23:24:20.162Z,19.30
2022-09-07T23:26:51.508Z,19.20
2022-09-07T23:29:21.775Z,19.00
2022-09-07T23:31:51.365Z,18.90
2022-09-07T23:34:21.104Z,18.80
2022-09-07T23:36:50.669Z,18.80
2022-09-07T23:39:20.785Z,18.70
2022-09-07T23:41:53.652Z,18.70
2022-09-07T23:44:24.115Z,18.50
2022-09-07T23:46:53.701Z,18.40
2022-09-07T23:49:23.194Z,18.30
2022-09-07T23:51:52.887Z,18.20
2022-09-07T23:54:22.462Z,18.10
2022-09-07T23:56:54.205Z,18.00
2022-09-07T23:59:23.683Z,17.90
